sensor_id;sensor_type;location;lat;lon;timestamp;P1;durP1;ratioP1;P2;durP2;ratioP2
11541;SDS011;5827;49.482;7.716;2023-04-03T00:00:43;3.23;;;3.00;;
11541;SDS011;5827;49.482;7.716;2023-04-03T00:02:45;5.47;;;3.50;;
11541;SDS011;5827;49.482;7.716;2023-04-03T00:04:47;4.20;;;3.57;;
11541;SDS011;5827;49.482;7.716;2023-04-03T00:06:48;3.20;;;2.97;;
11541;SDS011;5827;49.482;7.716;2023-04-03T00:08:50;3.23;;;2.93;;
11541;SDS011;5827;49.482;7.716;2023-04-03T00:10:52;6.63;;;3.47;;
11541;SDS011;5827;49.482;7.716;2023-04-03T00:12:53;3.20;;;2.90;;
11541;SDS011;5827;49.482;7.716;2023-04-03T00:14:56;3.17;;;2.87;;
11541;SDS011;5827;49.482;7.716;2023-04-03T00:16:58;3.27;;;2.97;;
11541;SDS011;5827;49.482;7.716;2023-04-03T00:18:59;3.57;;;2.77;;
11541;SDS011;5827;49.482;7.716;2023-04-03T00:21:01;3.37;;;2.77;;
11541;SDS011;5827;49.482;7.716;2023-04-03T00:23:03;3.60;;;3.07;;
11541;SDS011;5827;49.482;7.716;2023-04-03T00:25:05;4.90;;;2.90;;
11541;SDS011;5827;49.482;7.716;2023-04-03T00:27:07;2.70;;;2.50;;
11541;SDS011;5827;49.482;7.716;2023-04-03T00:29:09;4.40;;;3.43;;
11541;SDS011;5827;49.482;7.716;2023-04-03T00:31:13;4.53;;;3.20;;
11541;SDS011;5827;49.482;7.716;2023-04-03T00:33:15;3.33;;;2.97;;
11541;SDS011;5827;49.482;7.716;2023-04-03T00:35:17;3.63;;;3.00;;
11541;SDS011;5827;49.482;7.716;2023-04-03T00:37:19;4.43;;;3.00;;
11541;SDS011;5827;49.482;7.716;2023-04-03T00:39:21;4.00;;;2.70;;
11541;SDS011;5827;49.482;7.716;2023-04-03T00:41:22;2.73;;;2.53;;
11541;SDS011;5827;49.482;7.716;2023-04-03T00:43:25;3.43;;;2.80;;
11541;SDS011;5827;49.482;7.716;2023-04-03T00:45:30;3.07;;;2.80;;
11541;SDS011;5827;49.482;7.716;2023-04-03T00:47:35;3.07;;;2.77;;
11541;SDS011;5827;49.482;7.716;2023-04-03T00:49:39;3.50;;;2.90;;
11541;SDS011;5827;49.482;7.716;2023-04-03T00:51:41;4.13;;;2.93;;
11541;SDS011;5827;49.482;7.716;2023-04-03T00:53:44;3.50;;;2.83;;
11541;SDS011;5827;49.482;7.716;2023-04-03T00:55:48;3.13;;;2.90;;
11541;SDS011;5827;49.482;7.716;2023-04-03T00:57:51;3.23;;;2.93;;
11541;SDS011;5827;49.482;7.716;2023-04-03T00:59:55;3.00;;;2.70;;
11541;SDS011;5827;49.482;7.716;2023-04-03T01:02:01;4.03;;;3.27;;
11541;SDS011;5827;49.482;7.716;2023-04-03T01:04:05;4.43;;;3.40;;
11541;SDS011;5827;49.482;7.716;2023-04-03T01:06:27;4.43;;;3.00;;
11541;SDS011;5827;49.482;7.716;2023-04-03T01:08:32;3.87;;;3.07;;
11541;SDS011;5827;49.482;7.716;2023-04-03T01:10:35;3.87;;;3.27;;
11541;SDS011;5827;49.482;7.716;2023-04-03T01:12:37;3.97;;;3.20;;
11541;SDS011;5827;49.482;7.716;2023-04-03T01:14:40;2.93;;;2.63;;
11541;SDS011;5827;49.482;7.716;2023-04-03T01:16:42;4.53;;;3.13;;
11541;SDS011;5827;49.482;7.716;2023-04-03T01:18:44;3.80;;;3.20;;
11541;SDS011;5827;49.482;7.716;2023-04-03T01:23:40;3.87;;;3.30;;
11541;SDS011;5827;49.482;7.716;2023-04-03T01:25:54;3.67;;;3.03;;
11541;SDS011;5827;49.482;7.716;2023-04-03T01:27:57;3.63;;;3.00;;
11541;SDS011;5827;49.482;7.716;2023-04-03T01:29:58;3.40;;;3.10;;
11541;SDS011;5827;49.482;7.716;2023-04-03T01:32:01;3.40;;;3.10;;
11541;SDS011;5827;49.482;7.716;2023-04-03T01:34:04;3.43;;;3.13;;
11541;SDS011;5827;49.482;7.716;2023-04-03T01:36:06;3.97;;;3.57;;
11541;SDS011;5827;49.482;7.716;2023-04-03T01:38:08;4.77;;;3.47;;
11541;SDS011;5827;49.482;7.716;2023-04-03T01:40:10;4.20;;;3.30;;
11541;SDS011;5827;49.482;7.716;2023-04-03T01:42:12;4.43;;;3.30;;
11541;SDS011;5827;49.482;7.716;2023-04-03T01:44:14;6.43;;;3.53;;
11541;SDS011;5827;49.482;7.716;2023-04-03T01:46:16;4.33;;;3.47;;
11541;SDS011;5827;49.482;7.716;2023-04-03T01:48:19;3.80;;;3.30;;
11541;SDS011;5827;49.482;7.716;2023-04-03T01:50:21;4.37;;;3.50;;
11541;SDS011;5827;49.482;7.716;2023-04-03T01:52:22;5.70;;;3.73;;
11541;SDS011;5827;49.482;7.716;2023-04-03T01:54:24;4.27;;;3.07;;
11541;SDS011;5827;49.482;7.716;2023-04-03T01:56:26;4.37;;;3.23;;
11541;SDS011;5827;49.482;7.716;2023-04-03T01:58:27;3.47;;;3.17;;
11541;SDS011;5827;49.482;7.716;2023-04-03T02:00:29;3.53;;;3.17;;
11541;SDS011;5827;49.482;7.716;2023-04-03T02:02:30;3.33;;;2.97;;
11541;SDS011;5827;49.482;7.716;2023-04-03T02:04:34;3.67;;;3.37;;
11541;SDS011;5827;49.482;7.716;2023-04-03T02:06:35;4.17;;;3.13;;
11541;SDS011;5827;49.482;7.716;2023-04-03T02:08:37;4.53;;;3.67;;
11541;SDS011;5827;49.482;7.716;2023-04-03T02:10:38;7.27;;;4.70;;
11541;SDS011;5827;49.482;7.716;2023-04-03T02:12:40;5.53;;;4.77;;
11541;SDS011;5827;49.482;7.716;2023-04-03T02:14:42;5.37;;;4.60;;
11541;SDS011;5827;49.482;7.716;2023-04-03T02:16:43;7.27;;;5.10;;
11541;SDS011;5827;49.482;7.716;2023-04-03T02:18:45;5.73;;;4.63;;
11541;SDS011;5827;49.482;7.716;2023-04-03T02:20:48;5.80;;;4.27;;
11541;SDS011;5827;49.482;7.716;2023-04-03T02:22:50;9.60;;;4.57;;
11541;SDS011;5827;49.482;7.716;2023-04-03T02:24:51;5.13;;;4.13;;
11541;SDS011;5827;49.482;7.716;2023-04-03T02:26:53;5.37;;;3.73;;
11541;SDS011;5827;49.482;7.716;2023-04-03T02:28:54;4.33;;;3.60;;
11541;SDS011;5827;49.482;7.716;2023-04-03T02:30:56;4.20;;;3.70;;
11541;SDS011;5827;49.482;7.716;2023-04-03T02:32:56;5.33;;;3.63;;
11541;SDS011;5827;49.482;7.716;2023-04-03T02:34:58;3.93;;;3.50;;
11541;SDS011;5827;49.482;7.716;2023-04-03T02:37:01;4.20;;;3.53;;
11541;SDS011;5827;49.482;7.716;2023-04-03T02:39:02;4.00;;;3.57;;
11541;SDS011;5827;49.482;7.716;2023-04-03T02:41:06;3.90;;;3.50;;
11541;SDS011;5827;49.482;7.716;2023-04-03T02:43:08;4.00;;;3.60;;
11541;SDS011;5827;49.482;7.716;2023-04-03T02:45:10;5.30;;;3.73;;
11541;SDS011;5827;49.482;7.716;2023-04-03T02:47:11;4.03;;;3.40;;
11541;SDS011;5827;49.482;7.716;2023-04-03T02:49:13;4.00;;;3.40;;
11541;SDS011;5827;49.482;7.716;2023-04-03T02:51:15;5.30;;;3.40;;
11541;SDS011;5827;49.482;7.716;2023-04-03T02:53:18;3.97;;;3.63;;
11541;SDS011;5827;49.482;7.716;2023-04-03T02:55:20;3.93;;;3.53;;
11541;SDS011;5827;49.482;7.716;2023-04-03T02:57:21;4.97;;;3.60;;
11541;SDS011;5827;49.482;7.716;2023-04-03T02:59:23;4.30;;;3.70;;
11541;SDS011;5827;49.482;7.716;2023-04-03T03:01:24;5.83;;;3.73;;
11541;SDS011;5827;49.482;7.716;2023-04-03T03:03:28;5.73;;;3.70;;
11541;SDS011;5827;49.482;7.716;2023-04-03T03:05:29;3.80;;;3.50;;
11541;SDS011;5827;49.482;7.716;2023-04-03T03:07:32;3.77;;;3.20;;
11541;SDS011;5827;49.482;7.716;2023-04-03T03:09:35;4.93;;;3.80;;
11541;SDS011;5827;49.482;7.716;2023-04-03T03:11:36;4.73;;;3.67;;
11541;SDS011;5827;49.482;7.716;2023-04-03T03:13:38;6.63;;;3.60;;
11541;SDS011;5827;49.482;7.716;2023-04-03T03:15:40;4.60;;;3.47;;
11541;SDS011;5827;49.482;7.716;2023-04-03T03:17:41;3.63;;;3.20;;
11541;SDS011;5827;49.482;7.716;2023-04-03T03:19:43;4.30;;;3.43;;
11541;SDS011;5827;49.482;7.716;2023-04-03T03:21:45;3.83;;;3.53;;
11541;SDS011;5827;49.482;7.716;2023-04-03T03:23:47;5.50;;;3.70;;
11541;SDS011;5827;49.482;7.716;2023-04-03T03:25:53;6.90;;;4.10;;
11541;SDS011;5827;49.482;7.716;2023-04-03T03:27:56;4.17;;;3.60;;
11541;SDS011;5827;49.482;7.716;2023-04-03T03:29:57;4.90;;;3.50;;
11541;SDS011;5827;49.482;7.716;2023-04-03T03:31:59;3.63;;;3.33;;
11541;SDS011;5827;49.482;7.716;2023-04-03T03:34:00;4.87;;;3.60;;
11541;SDS011;5827;49.482;7.716;2023-04-03T03:36:02;3.60;;;3.30;;
11541;SDS011;5827;49.482;7.716;2023-04-03T03:38:04;5.40;;;3.80;;
11541;SDS011;5827;49.482;7.716;2023-04-03T03:40:06;4.20;;;3.40;;
11541;SDS011;5827;49.482;7.716;2023-04-03T03:42:09;3.93;;;3.53;;
11541;SDS011;5827;49.482;7.716;2023-04-03T03:44:11;3.63;;;3.33;;
11541;SDS011;5827;49.482;7.716;2023-04-03T03:46:12;4.43;;;3.40;;
11541;SDS011;5827;49.482;7.716;2023-04-03T03:48:14;5.77;;;3.50;;
11541;SDS011;5827;49.482;7.716;2023-04-03T03:50:15;4.23;;;3.47;;
11541;SDS011;5827;49.482;7.716;2023-04-03T03:52:17;4.43;;;3.63;;
11541;SDS011;5827;49.482;7.716;2023-04-03T03:54:18;6.07;;;4.43;;
11541;SDS011;5827;49.482;7.716;2023-04-03T03:56:20;9.50;;;6.37;;
11541;SDS011;5827;49.482;7.716;2023-04-03T03:58:23;7.80;;;5.50;;
11541;SDS011;5827;49.482;7.716;2023-04-03T04:00:24;6.27;;;5.27;;
11541;SDS011;5827;49.482;7.716;2023-04-03T04:02:26;7.00;;;5.53;;
11541;SDS011;5827;49.482;7.716;2023-04-03T04:04:27;6.70;;;4.87;;
11541;SDS011;5827;49.482;7.716;2023-04-03T04:06:29;6.80;;;4.67;;
11541;SDS011;5827;49.482;7.716;2023-04-03T04:08:30;5.77;;;4.10;;
11541;SDS011;5827;49.482;7.716;2023-04-03T04:10:32;4.90;;;4.37;;
11541;SDS011;5827;49.482;7.716;2023-04-03T04:12:33;8.37;;;4.60;;
11541;SDS011;5827;49.482;7.716;2023-04-03T04:14:36;4.93;;;4.00;;
11541;SDS011;5827;49.482;7.716;2023-04-03T04:16:38;4.27;;;3.83;;
11541;SDS011;5827;49.482;7.716;2023-04-03T04:18:40;4.40;;;3.70;;
11541;SDS011;5827;49.482;7.716;2023-04-03T04:20:41;4.30;;;3.77;;
11541;SDS011;5827;49.482;7.716;2023-04-03T04:22:43;4.20;;;3.77;;
11541;SDS011;5827;49.482;7.716;2023-04-03T04:24:44;5.67;;;3.80;;
11541;SDS011;5827;49.482;7.716;2023-04-03T04:26:46;4.33;;;3.63;;
11541;SDS011;5827;49.482;7.716;2023-04-03T04:28:47;4.00;;;3.60;;
11541;SDS011;5827;49.482;7.716;2023-04-03T04:30:50;4.63;;;3.93;;
11541;SDS011;5827;49.482;7.716;2023-04-03T04:32:52;5.40;;;3.60;;
11541;SDS011;5827;49.482;7.716;2023-04-03T04:34:53;5.20;;;3.90;;
11541;SDS011;5827;49.482;7.716;2023-04-03T04:36:55;4.63;;;3.53;;
11541;SDS011;5827;49.482;7.716;2023-04-03T04:38:57;5.30;;;3.87;;
11541;SDS011;5827;49.482;7.716;2023-04-03T04:40:58;5.97;;;3.93;;
11541;SDS011;5827;49.482;7.716;2023-04-03T04:43:00;4.50;;;3.60;;
11541;SDS011;5827;49.482;7.716;2023-04-03T04:45:01;3.90;;;3.30;;
11541;SDS011;5827;49.482;7.716;2023-04-03T04:47:04;4.93;;;3.73;;
11541;SDS011;5827;49.482;7.716;2023-04-03T04:49:06;3.80;;;3.23;;
11541;SDS011;5827;49.482;7.716;2023-04-03T04:51:07;5.00;;;3.57;;
11541;SDS011;5827;49.482;7.716;2023-04-03T04:53:09;3.53;;;3.23;;
11541;SDS011;5827;49.482;7.716;2023-04-03T04:55:10;5.37;;;3.50;;
11541;SDS011;5827;49.482;7.716;2023-04-03T04:57:12;3.53;;;3.00;;
11541;SDS011;5827;49.482;7.716;2023-04-03T04:59:13;4.60;;;3.57;;
11541;SDS011;5827;49.482;7.716;2023-04-03T05:01:15;5.77;;;3.43;;
11541;SDS011;5827;49.482;7.716;2023-04-03T05:03:18;4.43;;;3.40;;
11541;SDS011;5827;49.482;7.716;2023-04-03T05:05:19;3.50;;;3.20;;
11541;SDS011;5827;49.482;7.716;2023-04-03T05:07:20;4.40;;;3.57;;
11541;SDS011;5827;49.482;7.716;2023-04-03T05:09:22;5.97;;;3.70;;
11541;SDS011;5827;49.482;7.716;2023-04-03T05:11:23;3.93;;;3.57;;
11541;SDS011;5827;49.482;7.716;2023-04-03T05:13:25;5.07;;;3.40;;
11541;SDS011;5827;49.482;7.716;2023-04-03T05:15:27;4.70;;;3.50;;
11541;SDS011;5827;49.482;7.716;2023-04-03T05:17:28;4.63;;;3.77;;
11541;SDS011;5827;49.482;7.716;2023-04-03T05:19:31;3.80;;;3.10;;
11541;SDS011;5827;49.482;7.716;2023-04-03T05:21:32;4.77;;;3.33;;
11541;SDS011;5827;49.482;7.716;2023-04-03T05:23:34;5.63;;;3.87;;
11541;SDS011;5827;49.482;7.716;2023-04-03T05:25:36;6.27;;;3.77;;
11541;SDS011;5827;49.482;7.716;2023-04-03T05:27:38;7.00;;;3.90;;
11541;SDS011;5827;49.482;7.716;2023-04-03T05:29:40;5.73;;;3.77;;
11541;SDS011;5827;49.482;7.716;2023-04-03T05:31:43;4.17;;;3.77;;
11541;SDS011;5827;49.482;7.716;2023-04-03T05:33:45;4.80;;;4.00;;
11541;SDS011;5827;49.482;7.716;2023-04-03T05:35:48;4.60;;;3.33;;
11541;SDS011;5827;49.482;7.716;2023-04-03T05:37:49;5.43;;;3.80;;
11541;SDS011;5827;49.482;7.716;2023-04-03T05:39:51;4.43;;;3.70;;
11541;SDS011;5827;49.482;7.716;2023-04-03T05:41:53;4.43;;;3.47;;
11541;SDS011;5827;49.482;7.716;2023-04-03T05:43:55;5.57;;;3.67;;
11541;SDS011;5827;49.482;7.716;2023-04-03T05:45:56;5.10;;;3.70;;
11541;SDS011;5827;49.482;7.716;2023-04-03T05:47:58;4.27;;;3.83;;
11541;SDS011;5827;49.482;7.716;2023-04-03T05:49:59;6.53;;;4.53;;
11541;SDS011;5827;49.482;7.716;2023-04-03T05:52:02;4.90;;;4.03;;
11541;SDS011;5827;49.482;7.716;2023-04-03T05:54:06;4.33;;;3.80;;
11541;SDS011;5827;49.482;7.716;2023-04-03T05:56:12;5.00;;;3.23;;
11541;SDS011;5827;49.482;7.716;2023-04-03T05:58:14;4.77;;;3.30;;
11541;SDS011;5827;49.482;7.716;2023-04-03T06:00:16;4.13;;;3.70;;
11541;SDS011;5827;49.482;7.716;2023-04-03T06:02:18;5.47;;;3.73;;
11541;SDS011;5827;49.482;7.716;2023-04-03T06:04:21;4.73;;;4.30;;
11541;SDS011;5827;49.482;7.716;2023-04-03T06:06:23;5.67;;;3.70;;
11541;SDS011;5827;49.482;7.716;2023-04-03T06:08:26;5.33;;;3.87;;
11541;SDS011;5827;49.482;7.716;2023-04-03T06:10:29;5.63;;;3.97;;
11541;SDS011;5827;49.482;7.716;2023-04-03T06:12:31;6.23;;;3.93;;
11541;SDS011;5827;49.482;7.716;2023-04-03T06:14:33;6.77;;;3.70;;
11541;SDS011;5827;49.482;7.716;2023-04-03T06:16:35;4.10;;;3.60;;
11541;SDS011;5827;49.482;7.716;2023-04-03T06:18:37;5.07;;;3.80;;
11541;SDS011;5827;49.482;7.716;2023-04-03T06:20:38;6.30;;;4.10;;
11541;SDS011;5827;49.482;7.716;2023-04-03T06:22:40;6.73;;;3.87;;
11541;SDS011;5827;49.482;7.716;2023-04-03T06:24:43;6.17;;;3.47;;
11541;SDS011;5827;49.482;7.716;2023-04-03T06:26:45;3.60;;;2.97;;
11541;SDS011;5827;49.482;7.716;2023-04-03T06:28:47;6.00;;;3.83;;
11541;SDS011;5827;49.482;7.716;2023-04-03T06:30:48;6.87;;;3.13;;
11541;SDS011;5827;49.482;7.716;2023-04-03T06:32:50;4.90;;;3.13;;
11541;SDS011;5827;49.482;7.716;2023-04-03T06:34:52;6.43;;;3.43;;
11541;SDS011;5827;49.482;7.716;2023-04-03T06:36:55;3.23;;;2.67;;
11541;SDS011;5827;49.482;7.716;2023-04-03T06:38:57;4.87;;;2.77;;
11541;SDS011;5827;49.482;7.716;2023-04-03T06:41:00;3.60;;;2.40;;
11541;SDS011;5827;49.482;7.716;2023-04-03T06:43:01;4.20;;;2.47;;
11541;SDS011;5827;49.482;7.716;2023-04-03T06:45:03;4.20;;;2.60;;
11541;SDS011;5827;49.482;7.716;2023-04-03T06:47:06;3.70;;;2.43;;
11541;SDS011;5827;49.482;7.716;2023-04-03T06:49:08;8.23;;;2.40;;
11541;SDS011;5827;49.482;7.716;2023-04-03T06:51:16;6.27;;;2.30;;
11541;SDS011;5827;49.482;7.716;2023-04-03T06:53:19;3.43;;;2.33;;
11541;SDS011;5827;49.482;7.716;2023-04-03T06:55:21;3.90;;;2.10;;
11541;SDS011;5827;49.482;7.716;2023-04-03T06:57:24;5.90;;;2.30;;
11541;SDS011;5827;49.482;7.716;2023-04-03T06:59:26;4.53;;;2.80;;
11541;SDS011;5827;49.482;7.716;2023-04-03T07:01:28;3.90;;;2.30;;
11541;SDS011;5827;49.482;7.716;2023-04-03T07:03:31;7.93;;;2.30;;
11541;SDS011;5827;49.482;7.716;2023-04-03T07:05:32;6.00;;;2.40;;
11541;SDS011;5827;49.482;7.716;2023-04-03T07:07:34;4.30;;;2.97;;
11541;SDS011;5827;49.482;7.716;2023-04-03T07:09:37;6.50;;;2.50;;
11541;SDS011;5827;49.482;7.716;2023-04-03T07:11:39;5.27;;;2.40;;
11541;SDS011;5827;49.482;7.716;2023-04-03T07:13:42;5.43;;;2.70;;
11541;SDS011;5827;49.482;7.716;2023-04-03T07:15:43;3.73;;;2.57;;
11541;SDS011;5827;49.482;7.716;2023-04-03T07:17:45;4.50;;;2.80;;
11541;SDS011;5827;49.482;7.716;2023-04-03T07:19:46;4.33;;;2.67;;
11541;SDS011;5827;49.482;7.716;2023-04-03T07:21:48;5.43;;;3.10;;
11541;SDS011;5827;49.482;7.716;2023-04-03T07:23:49;6.87;;;2.63;;
11541;SDS011;5827;49.482;7.716;2023-04-03T07:25:51;3.37;;;2.53;;
11541;SDS011;5827;49.482;7.716;2023-04-03T07:27:53;3.37;;;2.70;;
11541;SDS011;5827;49.482;7.716;2023-04-03T07:29:57;4.87;;;2.60;;
11541;SDS011;5827;49.482;7.716;2023-04-03T07:31:58;5.03;;;2.67;;
11541;SDS011;5827;49.482;7.716;2023-04-03T07:33:59;6.47;;;3.20;;
11541;SDS011;5827;49.482;7.716;2023-04-03T07:36:01;6.43;;;2.73;;
11541;SDS011;5827;49.482;7.716;2023-04-03T07:38:03;5.50;;;3.00;;
11541;SDS011;5827;49.482;7.716;2023-04-03T07:40:05;5.50;;;2.80;;
11541;SDS011;5827;49.482;7.716;2023-04-03T07:42:08;5.40;;;2.33;;
11541;SDS011;5827;49.482;7.716;2023-04-03T07:44:10;6.40;;;3.77;;
11541;SDS011;5827;49.482;7.716;2023-04-03T07:46:12;5.97;;;2.60;;
11541;SDS011;5827;49.482;7.716;2023-04-03T07:48:14;4.33;;;2.80;;
11541;SDS011;5827;49.482;7.716;2023-04-03T07:50:17;4.43;;;2.73;;
11541;SDS011;5827;49.482;7.716;2023-04-03T07:52:18;3.77;;;2.87;;
11541;SDS011;5827;49.482;7.716;2023-04-03T07:54:20;6.97;;;2.60;;
11541;SDS011;5827;49.482;7.716;2023-04-03T07:56:21;6.63;;;2.70;;
11541;SDS011;5827;49.482;7.716;2023-04-03T07:58:25;6.63;;;2.73;;
11541;SDS011;5827;49.482;7.716;2023-04-03T08:00:26;5.97;;;2.57;;
11541;SDS011;5827;49.482;7.716;2023-04-03T08:02:29;5.30;;;2.70;;
11541;SDS011;5827;49.482;7.716;2023-04-03T08:04:31;4.53;;;2.70;;
11541;SDS011;5827;49.482;7.716;2023-04-03T08:06:33;4.80;;;3.20;;
11541;SDS011;5827;49.482;7.716;2023-04-03T08:08:36;5.30;;;3.20;;
11541;SDS011;5827;49.482;7.716;2023-04-03T08:10:38;5.70;;;3.00;;
11541;SDS011;5827;49.482;7.716;2023-04-03T08:12:39;5.17;;;3.40;;
11541;SDS011;5827;49.482;7.716;2023-04-03T08:14:41;5.70;;;2.67;;
11541;SDS011;5827;49.482;7.716;2023-04-03T08:16:43;4.27;;;2.90;;
11541;SDS011;5827;49.482;7.716;2023-04-03T08:18:46;6.60;;;2.80;;
11541;SDS011;5827;49.482;7.716;2023-04-03T08:20:47;5.20;;;2.90;;
11541;SDS011;5827;49.482;7.716;2023-04-03T08:22:49;5.13;;;2.83;;
11541;SDS011;5827;49.482;7.716;2023-04-03T08:24:50;8.70;;;2.93;;
11541;SDS011;5827;49.482;7.716;2023-04-03T08:26:52;6.53;;;3.17;;
11541;SDS011;5827;49.482;7.716;2023-04-03T08:28:53;4.97;;;3.07;;
11541;SDS011;5827;49.482;7.716;2023-04-03T08:30:55;4.67;;;2.90;;
11541;SDS011;5827;49.482;7.716;2023-04-03T08:32:57;6.10;;;3.13;;
11541;SDS011;5827;49.482;7.716;2023-04-03T08:34:59;5.07;;;3.10;;
11541;SDS011;5827;49.482;7.716;2023-04-03T08:37:01;5.33;;;3.27;;
11541;SDS011;5827;49.482;7.716;2023-04-03T08:39:03;4.53;;;2.93;;
11541;SDS011;5827;49.482;7.716;2023-04-03T08:41:05;6.47;;;3.00;;
11541;SDS011;5827;49.482;7.716;2023-04-03T08:43:22;3.97;;;3.10;;
11541;SDS011;5827;49.482;7.716;2023-04-03T08:45:40;8.40;;;3.23;;
11541;SDS011;5827;49.482;7.716;2023-04-03T08:47:46;6.53;;;3.00;;
11541;SDS011;5827;49.482;7.716;2023-04-03T08:49:53;3.70;;;2.80;;
11541;SDS011;5827;49.482;7.716;2023-04-03T08:51:58;4.07;;;2.47;;
11541;SDS011;5827;49.482;7.716;2023-04-03T08:54:03;4.33;;;2.50;;
11541;SDS011;5827;49.482;7.716;2023-04-03T08:56:09;4.10;;;2.60;;
11541;SDS011;5827;49.482;7.716;2023-04-03T08:58:14;5.03;;;2.57;;
11541;SDS011;5827;49.482;7.716;2023-04-03T09:00:18;5.83;;;2.80;;
11541;SDS011;5827;49.482;7.716;2023-04-03T09:02:23;4.90;;;2.70;;
11541;SDS011;5827;49.482;7.716;2023-04-03T09:04:28;4.83;;;2.77;;
11541;SDS011;5827;49.482;7.716;2023-04-03T09:06:33;6.30;;;2.90;;
11541;SDS011;5827;49.482;7.716;2023-04-03T09:08:36;4.10;;;2.77;;
11541;SDS011;5827;49.482;7.716;2023-04-03T09:10:44;4.63;;;3.03;;
11541;SDS011;5827;49.482;7.716;2023-04-03T09:12:46;5.63;;;3.07;;
11541;SDS011;5827;49.482;7.716;2023-04-03T09:14:55;4.90;;;2.83;;
11541;SDS011;5827;49.482;7.716;2023-04-03T09:17:03;5.13;;;2.90;;
11541;SDS011;5827;49.482;7.716;2023-04-03T09:19:13;6.10;;;2.97;;
11541;SDS011;5827;49.482;7.716;2023-04-03T09:21:23;5.03;;;3.07;;
11541;SDS011;5827;49.482;7.716;2023-04-03T09:23:28;3.50;;;2.93;;
11541;SDS011;5827;49.482;7.716;2023-04-03T09:25:35;5.97;;;3.17;;
11541;SDS011;5827;49.482;7.716;2023-04-03T09:27:38;6.27;;;3.03;;
11541;SDS011;5827;49.482;7.716;2023-04-03T09:29:41;5.33;;;2.63;;
11541;SDS011;5827;49.482;7.716;2023-04-03T09:31:46;5.17;;;3.00;;
11541;SDS011;5827;49.482;7.716;2023-04-03T09:33:50;5.00;;;2.87;;
11541;SDS011;5827;49.482;7.716;2023-04-03T09:35:54;4.40;;;2.37;;
11541;SDS011;5827;49.482;7.716;2023-04-03T09:37:58;4.73;;;2.80;;
11541;SDS011;5827;49.482;7.716;2023-04-03T09:40:02;3.03;;;2.40;;
11541;SDS011;5827;49.482;7.716;2023-04-03T09:42:13;3.53;;;2.10;;
11541;SDS011;5827;49.482;7.716;2023-04-03T09:44:21;5.37;;;2.30;;
11541;SDS011;5827;49.482;7.716;2023-04-03T09:46:28;3.90;;;2.50;;
11541;SDS011;5827;49.482;7.716;2023-04-03T09:48:31;4.23;;;2.70;;
11541;SDS011;5827;49.482;7.716;2023-04-03T09:50:32;5.30;;;2.37;;
11541;SDS011;5827;49.482;7.716;2023-04-03T09:52:34;4.00;;;2.20;;
11541;SDS011;5827;49.482;7.716;2023-04-03T09:54:37;3.37;;;2.20;;
11541;SDS011;5827;49.482;7.716;2023-04-03T09:56:40;6.53;;;2.60;;
11541;SDS011;5827;49.482;7.716;2023-04-03T09:58:52;4.70;;;2.60;;
11541;SDS011;5827;49.482;7.716;2023-04-03T10:01:20;6.03;;;2.63;;
11541;SDS011;5827;49.482;7.716;2023-04-03T10:03:25;17.87;;;11.07;;
11541;SDS011;5827;49.482;7.716;2023-04-03T10:05:32;3.87;;;2.53;;
11541;SDS011;5827;49.482;7.716;2023-04-03T10:07:35;4.37;;;2.23;;
11541;SDS011;5827;49.482;7.716;2023-04-03T10:09:38;4.20;;;2.30;;
11541;SDS011;5827;49.482;7.716;2023-04-03T10:11:47;2.87;;;2.40;;
11541;SDS011;5827;49.482;7.716;2023-04-03T10:14:01;6.60;;;2.60;;
11541;SDS011;5827;49.482;7.716;2023-04-03T10:16:07;4.17;;;2.40;;
11541;SDS011;5827;49.482;7.716;2023-04-03T10:18:21;2.90;;;1.90;;
11541;SDS011;5827;49.482;7.716;2023-04-03T10:20:33;4.97;;;2.43;;
11541;SDS011;5827;49.482;7.716;2023-04-03T10:22:39;3.90;;;2.17;;
11541;SDS011;5827;49.482;7.716;2023-04-03T10:24:52;4.87;;;2.10;;
11541;SDS011;5827;49.482;7.716;2023-04-03T10:27:02;2.83;;;2.17;;
11541;SDS011;5827;49.482;7.716;2023-04-03T10:29:13;3.73;;;2.23;;
11541;SDS011;5827;49.482;7.716;2023-04-03T10:31:24;4.40;;;2.30;;
11541;SDS011;5827;49.482;7.716;2023-04-03T10:33:33;5.67;;;2.33;;
11541;SDS011;5827;49.482;7.716;2023-04-03T10:35:43;5.07;;;2.40;;
11541;SDS011;5827;49.482;7.716;2023-04-03T10:37:54;2.70;;;2.10;;
11541;SDS011;5827;49.482;7.716;2023-04-03T10:40:05;3.03;;;2.33;;
11541;SDS011;5827;49.482;7.716;2023-04-03T10:42:18;3.93;;;2.23;;
11541;SDS011;5827;49.482;7.716;2023-04-03T10:44:31;4.10;;;2.20;;
11541;SDS011;5827;49.482;7.716;2023-04-03T10:46:43;3.27;;;2.37;;
11541;SDS011;5827;49.482;7.716;2023-04-03T10:48:54;3.20;;;2.37;;
11541;SDS011;5827;49.482;7.716;2023-04-03T10:51:10;6.90;;;2.27;;
11541;SDS011;5827;49.482;7.716;2023-04-03T10:53:24;5.00;;;2.33;;
11541;SDS011;5827;49.482;7.716;2023-04-03T10:55:34;4.43;;;1.97;;
11541;SDS011;5827;49.482;7.716;2023-04-03T10:57:39;2.53;;;1.83;;
11541;SDS011;5827;49.482;7.716;2023-04-03T10:59:45;6.13;;;2.57;;
11541;SDS011;5827;49.482;7.716;2023-04-03T11:01:51;4.77;;;1.93;;
11541;SDS011;5827;49.482;7.716;2023-04-03T11:03:56;2.80;;;1.70;;
11541;SDS011;5827;49.482;7.716;2023-04-03T11:06:00;2.10;;;1.60;;
11541;SDS011;5827;49.482;7.716;2023-04-03T11:08:04;3.30;;;1.90;;
11541;SDS011;5827;49.482;7.716;2023-04-03T11:10:13;7.03;;;1.97;;
11541;SDS011;5827;49.482;7.716;2023-04-03T11:12:20;4.70;;;2.70;;
11541;SDS011;5827;49.482;7.716;2023-04-03T11:14:28;2.27;;;1.90;;
11541;SDS011;5827;49.482;7.716;2023-04-03T11:16:36;3.23;;;2.20;;
11541;SDS011;5827;49.482;7.716;2023-04-03T11:18:45;3.30;;;1.77;;
11541;SDS011;5827;49.482;7.716;2023-04-03T11:20:53;3.77;;;1.90;;
11541;SDS011;5827;49.482;7.716;2023-04-03T11:23:03;2.90;;;1.90;;
11541;SDS011;5827;49.482;7.716;2023-04-03T11:25:15;6.07;;;2.00;;
11541;SDS011;5827;49.482;7.716;2023-04-03T11:27:22;2.43;;;1.90;;
11541;SDS011;5827;49.482;7.716;2023-04-03T11:29:28;3.97;;;2.40;;
11541;SDS011;5827;49.482;7.716;2023-04-03T11:31:38;4.60;;;2.17;;
11541;SDS011;5827;49.482;7.716;2023-04-03T11:33:55;3.00;;;1.90;;
11541;SDS011;5827;49.482;7.716;2023-04-03T11:36:07;3.40;;;2.00;;
11541;SDS011;5827;49.482;7.716;2023-04-03T11:38:13;2.03;;;1.80;;
11541;SDS011;5827;49.482;7.716;2023-04-03T11:40:23;3.90;;;2.20;;
11541;SDS011;5827;49.482;7.716;2023-04-03T11:42:29;2.93;;;2.07;;
11541;SDS011;5827;49.482;7.716;2023-04-03T11:44:35;6.63;;;2.27;;
11541;SDS011;5827;49.482;7.716;2023-04-03T11:46:52;3.43;;;2.20;;
11541;SDS011;5827;49.482;7.716;2023-04-03T11:48:55;3.93;;;2.17;;
11541;SDS011;5827;49.482;7.716;2023-04-03T11:50:57;3.67;;;2.10;;
11541;SDS011;5827;49.482;7.716;2023-04-03T11:53:00;3.77;;;2.27;;
11541;SDS011;5827;49.482;7.716;2023-04-03T11:55:09;5.00;;;2.17;;
11541;SDS011;5827;49.482;7.716;2023-04-03T11:57:47;3.17;;;1.90;;
11541;SDS011;5827;49.482;7.716;2023-04-03T12:02:40;3.80;;;1.77;;
11541;SDS011;5827;49.482;7.716;2023-04-03T12:04:42;4.40;;;1.90;;
11541;SDS011;5827;49.482;7.716;2023-04-03T12:07:23;2.50;;;1.60;;
11541;SDS011;5827;49.482;7.716;2023-04-03T12:09:26;3.23;;;1.87;;
11541;SDS011;5827;49.482;7.716;2023-04-03T12:11:32;4.93;;;1.93;;
11541;SDS011;5827;49.482;7.716;2023-04-03T12:13:37;2.17;;;1.70;;
11541;SDS011;5827;49.482;7.716;2023-04-03T12:15:46;3.07;;;1.83;;
11541;SDS011;5827;49.482;7.716;2023-04-03T12:17:53;3.17;;;1.80;;
11541;SDS011;5827;49.482;7.716;2023-04-03T12:19:55;4.20;;;2.00;;
11541;SDS011;5827;49.482;7.716;2023-04-03T12:22:10;4.33;;;2.00;;
11541;SDS011;5827;49.482;7.716;2023-04-03T12:24:27;3.53;;;1.97;;
11541;SDS011;5827;49.482;7.716;2023-04-03T12:26:31;3.33;;;2.00;;
11541;SDS011;5827;49.482;7.716;2023-04-03T12:28:38;4.67;;;2.27;;
11541;SDS011;5827;49.482;7.716;2023-04-03T12:30:40;3.50;;;2.10;;
11541;SDS011;5827;49.482;7.716;2023-04-03T12:32:49;3.07;;;1.97;;
11541;SDS011;5827;49.482;7.716;2023-04-03T12:35:03;2.33;;;1.77;;
11541;SDS011;5827;49.482;7.716;2023-04-03T12:37:17;3.13;;;1.70;;
11541;SDS011;5827;49.482;7.716;2023-04-03T12:41:57;3.00;;;1.93;;
11541;SDS011;5827;49.482;7.716;2023-04-03T12:44:20;3.60;;;2.30;;
11541;SDS011;5827;49.482;7.716;2023-04-03T12:46:38;3.90;;;2.10;;